createdAt,value
2022-11-26T00:00:32.471Z,23.30
2022-11-26T00:02:59.184Z,28.00
2022-11-26T00:05:30.819Z,25.90
2022-11-26T00:07:59.799Z,30.50
2022-11-26T00:10:30.236Z,27.40
2022-11-26T00:12:57.163Z,32.40
2022-11-26T00:15:27.276Z,23.80
2022-11-26T00:17:54.704Z,29.10
2022-11-26T00:20:30.381Z,27.80
2022-11-26T00:23:03.600Z,25.80
2022-11-26T00:25:47.193Z,25.90
2022-11-26T00:28:37.795Z,27.90
2022-11-26T00:31:12.923Z,27.80
2022-11-26T00:33:39.856Z,30.50
2022-11-26T00:36:21.625Z,27.50
2022-11-26T00:38:56.392Z,28.50
2022-11-26T00:41:26.476Z,26.40
2022-11-26T00:43:53.274Z,25.20
2022-11-26T00:46:21.358Z,26.30
2022-11-26T00:48:48.822Z,23.10
2022-11-26T00:51:27.067Z,22.60
2022-11-26T00:53:58.862Z,27.30
2022-11-26T00:56:25.887Z,21.60
2022-11-26T00:58:52.515Z,27.80
2022-11-26T01:01:23.927Z,28.30
2022-11-26T01:06:21.176Z,28.40
2022-11-26T01:08:48.029Z,23.40
2022-11-26T01:11:20.902Z,27.90
2022-11-26T01:13:51.438Z,20.10
2022-11-26T01:16:27.420Z,32.90
2022-11-26T01:18:57.458Z,29.20
2022-11-26T01:21:27.438Z,25.20
2022-11-26T01:23:54.315Z,32.00
2022-11-26T01:26:33.500Z,27.80
2022-11-26T01:29:00.123Z,32.70
2022-11-26T01:31:29.025Z,27.20
2022-11-26T01:33:56.472Z,25.00
2022-11-26T01:36:32.783Z,23.30
2022-11-26T01:39:15.521Z,22.00
2022-11-26T01:42:00.779Z,28.20
2022-11-26T01:44:31.556Z,26.10
2022-11-26T01:46:59.844Z,26.20
2022-11-26T01:49:34.427Z,25.50
2022-11-26T01:52:30.600Z,22.60
2022-11-26T01:54:57.327Z,32.20
2022-11-26T01:57:29.825Z,23.50
2022-11-26T02:00:00.848Z,27.00
2022-11-26T02:02:29.360Z,30.30
2022-11-26T02:05:23.955Z,27.00
2022-11-26T02:07:52.705Z,35.90
2022-11-26T02:10:19.586Z,30.10
2022-11-26T02:12:46.657Z,25.10
2022-11-26T02:15:13.506Z,28.10
2022-11-26T02:17:45.605Z,25.80
2022-11-26T02:20:49.482Z,23.60
2022-11-26T02:23:56.101Z,30.20
2022-11-26T02:26:46.858Z,26.00
2022-11-26T02:29:28.120Z,25.30
2022-11-26T02:32:13.662Z,27.60
2022-11-26T02:34:44.211Z,25.60
2022-11-26T02:37:19.759Z,25.00
2022-11-26T02:39:46.818Z,28.10
2022-11-26T02:42:25.487Z,27.50
2022-11-26T02:45:01.216Z,26.70
2022-11-26T02:47:29.407Z,28.00
2022-11-26T02:50:02.930Z,26.60
2022-11-26T02:52:30.747Z,24.30
2022-11-26T02:54:58.111Z,28.70
2022-11-26T02:57:29.408Z,28.40
2022-11-26T02:59:56.349Z,27.50
2022-11-26T03:02:34.690Z,27.60
2022-11-26T03:05:02.971Z,27.40
2022-11-26T03:07:31.274Z,27.20
2022-11-26T03:10:01.461Z,21.90
2022-11-26T03:12:28.779Z,30.80
2022-11-26T03:14:55.578Z,24.80
2022-11-26T03:17:22.291Z,26.90
2022-11-26T03:19:49.036Z,27.20
2022-11-26T03:22:15.907Z,25.10
2022-11-26T03:24:42.712Z,30.60
2022-11-26T03:27:09.395Z,27.90
2022-11-26T03:29:36.287Z,25.90
2022-11-26T03:32:03.266Z,26.00
2022-11-26T03:34:30.045Z,23.90
2022-11-26T03:36:56.697Z,28.40
2022-11-26T03:39:23.412Z,25.80
2022-11-26T03:41:50.049Z,23.60
2022-11-26T03:44:16.697Z,23.00
2022-11-26T03:46:43.372Z,27.90
2022-11-26T03:49:10.152Z,22.50
2022-11-26T03:51:36.760Z,23.60
2022-11-26T03:54:03.644Z,24.10
2022-11-26T03:56:30.392Z,23.40
2022-11-26T03:58:57.003Z,32.90
2022-11-26T04:01:23.692Z,24.80
2022-11-26T04:03:50.487Z,21.20
2022-11-26T04:06:17.172Z,24.80
2022-11-26T04:08:44.122Z,19.80
2022-11-26T04:11:10.771Z,24.70
2022-11-26T04:13:37.393Z,25.70
2022-11-26T04:16:04.902Z,22.60
2022-11-26T04:18:32.589Z,25.80
2022-11-26T04:20:59.250Z,26.20
2022-11-26T04:23:25.894Z,22.40
2022-11-26T04:25:52.727Z,24.00
2022-11-26T04:28:19.332Z,22.90
2022-11-26T04:30:46.123Z,20.10
2022-11-26T04:33:13.377Z,26.40
2022-11-26T04:35:40.047Z,24.40
2022-11-26T04:38:06.692Z,19.70
2022-11-26T04:40:33.541Z,24.00
2022-11-26T04:43:00.225Z,19.70
2022-11-26T04:45:26.969Z,23.10
2022-11-26T04:47:54.054Z,23.20
2022-11-26T04:50:20.685Z,28.40
2022-11-26T04:52:50.419Z,23.30
2022-11-26T04:55:18.119Z,21.30
2022-11-26T04:57:47.950Z,21.30
2022-11-26T05:00:17.337Z,20.70
2022-11-26T05:02:44.812Z,21.80
2022-11-26T05:05:12.597Z,28.20
2022-11-26T05:07:39.675Z,21.60
2022-11-26T05:10:08.071Z,22.10
2022-11-26T05:12:35.514Z,20.30
2022-11-26T05:15:04.053Z,21.60
2022-11-26T05:17:31.939Z,22.90
2022-11-26T05:19:58.625Z,20.80
2022-11-26T05:22:25.548Z,18.20
2022-11-26T05:24:52.162Z,22.30
2022-11-26T05:27:18.790Z,21.00
2022-11-26T05:29:45.502Z,23.30
2022-11-26T05:32:12.204Z,22.90
2022-11-26T05:34:39.066Z,19.80
2022-11-26T05:37:06.012Z,24.10
2022-11-26T05:39:32.717Z,21.00
2022-11-26T05:42:00.358Z,18.80
2022-11-26T05:44:29.309Z,21.50
2022-11-26T05:46:56.035Z,18.30
2022-11-26T05:49:22.730Z,20.70
2022-11-26T05:51:49.409Z,18.50
2022-11-26T05:54:16.276Z,18.00
2022-11-26T05:56:43.241Z,18.70
2022-11-26T05:59:10.699Z,20.00
2022-11-26T06:01:37.414Z,18.40
2022-11-26T06:04:04.338Z,18.10
2022-11-26T06:06:31.185Z,20.90
2022-11-26T06:08:57.832Z,19.10
2022-11-26T06:11:24.504Z,18.70
2022-11-26T06:13:51.148Z,16.90
2022-11-26T06:16:18.178Z,18.90
2022-11-26T06:18:45.004Z,19.80
2022-11-26T06:21:11.709Z,16.40
2022-11-26T06:23:38.362Z,18.80
2022-11-26T06:26:09.986Z,16.80
2022-11-26T06:28:37.189Z,13.40
2022-11-26T06:31:04.120Z,17.00
2022-11-26T06:33:31.502Z,19.20
2022-11-26T06:36:03.788Z,16.00
2022-11-26T06:38:30.648Z,17.60
2022-11-26T06:41:03.791Z,18.70
2022-11-26T06:43:31.846Z,17.70
2022-11-26T06:46:03.999Z,15.10
2022-11-26T06:48:31.429Z,17.00
2022-11-26T06:51:09.093Z,19.70
2022-11-26T06:53:36.362Z,15.20
2022-11-26T06:56:16.389Z,15.70
2022-11-26T07:01:17.746Z,13.40
2022-11-26T07:03:45.934Z,17.70
2022-11-26T07:06:24.103Z,14.90
2022-11-26T07:08:53.047Z,17.40
2022-11-26T07:11:20.945Z,18.40
2022-11-26T07:13:48.086Z,20.00
2022-11-26T07:16:15.544Z,14.60
2022-11-26T07:18:42.454Z,9.80
2022-11-26T07:21:11.969Z,15.40
2022-11-26T07:23:40.051Z,14.30
2022-11-26T07:26:08.519Z,14.20
2022-11-26T07:28:35.969Z,9.30
2022-11-26T07:31:11.556Z,18.80
2022-11-26T07:33:42.029Z,13.10
2022-11-26T07:36:21.905Z,12.50
2022-11-26T07:38:49.086Z,14.40
2022-11-26T07:41:18.716Z,14.60
2022-11-26T07:43:46.130Z,13.70
2022-11-26T07:46:16.662Z,10.20
2022-11-26T07:48:43.689Z,11.90
2022-11-26T07:51:32.225Z,11.40
2022-11-26T07:54:04.624Z,12.00
2022-11-26T07:56:31.736Z,13.10
2022-11-26T07:58:58.521Z,15.80
2022-11-26T08:01:28.874Z,10.80
2022-11-26T08:03:57.041Z,14.20
2022-11-26T08:06:28.230Z,13.40
2022-11-26T08:08:55.283Z,15.50
2022-11-26T08:11:25.551Z,14.70
2022-11-26T08:13:55.539Z,14.00
2022-11-26T08:16:22.674Z,13.20
2022-11-26T08:18:54.077Z,13.60
2022-11-26T08:21:22.214Z,15.80
2022-11-26T08:23:48.927Z,17.30
2022-11-26T08:26:30.654Z,16.50
2022-11-26T08:29:00.165Z,14.60
2022-11-26T08:31:27.343Z,16.80
2022-11-26T08:34:01.732Z,17.80
2022-11-26T08:36:30.129Z,17.30
2022-11-26T08:38:58.621Z,17.90
2022-11-26T08:41:26.208Z,20.00
2022-11-26T08:44:08.777Z,18.40
2022-11-26T08:46:37.601Z,18.90
2022-11-26T08:49:05.661Z,25.70
2022-11-26T08:51:33.623Z,19.70
2022-11-26T08:54:00.449Z,23.80
2022-11-26T08:56:27.244Z,22.90
2022-11-26T08:58:53.931Z,27.00
2022-11-26T09:01:27.254Z,27.30
2022-11-26T09:03:59.037Z,26.60
2022-11-26T09:09:13.098Z,27.20
2022-11-26T09:11:53.242Z,25.80
2022-11-26T09:14:24.359Z,26.20
2022-11-26T09:16:53.283Z,32.00
2022-11-26T09:19:21.375Z,29.30
2022-11-26T09:21:48.549Z,30.70
2022-11-26T09:24:16.693Z,30.20
2022-11-26T09:26:44.246Z,27.30
2022-11-26T09:29:17.147Z,29.80
2022-11-26T09:32:15.436Z,28.70
2022-11-26T09:34:32.361Z,32.90
2022-11-26T09:36:59.938Z,32.10
2022-11-26T09:39:26.990Z,32.30
2022-11-26T09:42:06.782Z,30.80
2022-11-26T09:45:21.455Z,32.60
2022-11-26T09:47:52.469Z,34.00
2022-11-26T09:50:27.978Z,33.20
2022-11-26T09:53:19.599Z,35.70
2022-11-26T09:58:53.173Z,27.40
2022-11-26T10:01:22.565Z,26.10
2022-11-26T10:03:51.145Z,32.90
2022-11-26T10:06:36.478Z,30.80
2022-11-26T10:09:10.952Z,29.50
2022-11-26T10:12:30.895Z,26.20
2022-11-26T10:15:16.739Z,27.50
2022-11-26T10:18:21.816Z,23.80
2022-11-26T10:21:02.132Z,26.70
2022-11-26T10:23:44.862Z,26.40
2022-11-26T10:26:38.565Z,26.40
2022-11-26T10:29:26.690Z,33.70
2022-11-26T10:31:59.347Z,24.60
2022-11-26T10:34:50.781Z,27.30
2022-11-26T10:37:20.480Z,28.70
2022-11-26T10:39:47.349Z,32.30
2022-11-26T10:42:21.908Z,26.90
2022-11-26T10:44:51.165Z,26.20
2022-11-26T10:47:30.144Z,25.50
2022-11-26T10:50:14.237Z,21.60
2022-11-26T10:52:51.328Z,24.40
2022-11-26T10:55:28.651Z,21.50
2022-11-26T10:58:19.726Z,18.80
2022-11-26T11:00:49.548Z,21.00
2022-11-26T11:03:51.755Z,21.30
2022-11-26T11:06:17.674Z,21.10
2022-11-26T11:08:49.474Z,21.60
2022-11-26T11:11:28.715Z,19.70
2022-11-26T11:13:56.891Z,22.60
2022-11-26T11:16:31.589Z,24.40
2022-11-26T11:19:02.526Z,19.10
2022-11-26T11:21:34.756Z,20.30
2022-11-26T11:24:18.613Z,22.20
2022-11-26T11:26:49.020Z,18.40
2022-11-26T11:29:34.159Z,18.10
2022-11-26T11:32:04.756Z,20.90
2022-11-26T11:34:39.151Z,26.40
2022-11-26T11:37:14.919Z,22.00
2022-11-26T11:39:43.008Z,19.80
2022-11-26T11:42:23.466Z,24.50
2022-11-26T11:44:51.748Z,19.20
2022-11-26T11:47:43.910Z,25.00
2022-11-26T11:50:21.650Z,23.10
2022-11-26T11:53:10.557Z,22.90
2022-11-26T11:56:02.486Z,19.10
2022-11-26T11:58:59.540Z,23.40
2022-11-26T12:01:44.384Z,21.60
2022-11-26T12:04:39.847Z,22.00
2022-11-26T12:07:34.450Z,21.00
2022-11-26T12:10:35.456Z,21.90
2022-11-26T12:13:09.342Z,25.60
2022-11-26T12:16:01.550Z,21.60
2022-11-26T12:18:47.644Z,22.60
2022-11-26T12:21:16.919Z,24.00
2022-11-26T12:24:20.142Z,19.30
2022-11-26T12:26:54.814Z,18.00
2022-11-26T12:29:42.646Z,25.40
2022-11-26T12:32:21.626Z,20.70
2022-11-26T12:34:52.198Z,20.60
2022-11-26T12:37:22.861Z,22.30
2022-11-26T12:40:19.188Z,27.70
2022-11-26T12:43:05.357Z,23.80
2022-11-26T12:45:42.988Z,22.80
2022-11-26T12:48:43.019Z,25.20
2022-11-26T12:51:38.522Z,22.60
2022-11-26T12:54:28.460Z,20.10
2022-11-26T12:57:00.007Z,17.70
2022-11-26T12:59:59.178Z,19.50
2022-11-26T13:02:34.367Z,19.90
2022-11-26T13:05:01.307Z,20.20
2022-11-26T13:07:43.575Z,21.00
2022-11-26T13:10:55.528Z,19.70
2022-11-26T13:16:38.308Z,18.20
2022-11-26T13:19:22.959Z,19.40
2022-11-26T13:22:20.984Z,22.00
2022-11-26T13:25:29.413Z,19.20
2022-11-26T13:28:34.449Z,15.70
2022-11-26T13:31:37.786Z,16.90
2022-11-26T13:34:26.666Z,16.50
2022-11-26T13:37:19.653Z,23.70
2022-11-26T13:40:30.411Z,16.30
2022-11-26T13:43:43.115Z,17.00
2022-11-26T13:46:30.646Z,15.50
2022-11-26T13:49:51.264Z,16.80
2022-11-26T13:52:29.592Z,12.20
2022-11-26T13:55:06.956Z,17.40
2022-11-26T13:57:45.661Z,16.50
2022-11-26T14:00:26.317Z,15.40
2022-11-26T14:02:53.024Z,18.50
2022-11-26T14:05:20.445Z,15.50
2022-11-26T14:07:47.572Z,18.00
2022-11-26T14:10:36.466Z,13.80
2022-11-26T14:13:03.070Z,14.30
2022-11-26T14:15:42.121Z,12.90
2022-11-26T14:18:11.875Z,18.10
2022-11-26T14:20:56.860Z,16.50
2022-11-26T14:23:54.821Z,17.90
2022-11-26T14:26:39.049Z,16.00
2022-11-26T14:29:09.280Z,13.10
2022-11-26T14:31:42.387Z,15.60
2022-11-26T14:34:38.190Z,14.90
2022-11-26T14:37:16.821Z,15.50
2022-11-26T14:39:43.903Z,16.20
2022-11-26T14:42:19.141Z,16.00
2022-11-26T14:44:46.164Z,12.00
2022-11-26T14:47:19.891Z,16.60
2022-11-26T14:49:55.585Z,15.40
2022-11-26T14:52:28.051Z,13.80
2022-11-26T14:54:59.804Z,20.00
2022-11-26T14:58:09.520Z,15.90
2022-11-26T15:00:36.674Z,12.80
2022-11-26T15:03:04.111Z,17.50
2022-11-26T15:05:33.479Z,18.50
2022-11-26T15:08:15.903Z,15.50
2022-11-26T15:11:00.876Z,14.20
2022-11-26T15:13:45.962Z,15.50
2022-11-26T15:16:42.124Z,19.20
2022-11-26T15:19:14.134Z,17.40
2022-11-26T15:21:40.876Z,17.80
2022-11-26T15:24:08.429Z,21.60
2022-11-26T15:26:36.219Z,18.00
2022-11-26T15:29:28.749Z,21.40
2022-11-26T15:31:55.686Z,15.10
2022-11-26T15:34:23.216Z,19.00
2022-11-26T15:36:49.937Z,19.20
2022-11-26T15:39:29.155Z,16.90
2022-11-26T15:42:05.768Z,16.70
2022-11-26T15:44:39.002Z,14.00
2022-11-26T15:47:19.433Z,16.40
2022-11-26T15:49:52.069Z,17.80
2022-11-26T15:52:23.911Z,20.10
2022-11-26T15:55:14.026Z,13.30
2022-11-26T15:57:41.618Z,15.30
2022-11-26T16:00:21.796Z,15.90
2022-11-26T16:02:48.966Z,18.50
2022-11-26T16:05:28.025Z,15.00
2022-11-26T16:08:01.909Z,19.10
2022-11-26T16:10:34.647Z,13.20
2022-11-26T16:13:10.928Z,18.40
2022-11-26T16:16:03.274Z,17.00
2022-11-26T16:18:46.933Z,16.30
2022-11-26T16:21:18.407Z,15.00
2022-11-26T16:26:18.951Z,11.50
2022-11-26T16:28:46.528Z,18.20
2022-11-26T16:31:15.269Z,13.60
2022-11-26T16:33:42.840Z,14.70
2022-11-26T16:36:25.932Z,17.90
2022-11-26T16:38:52.728Z,16.50
2022-11-26T16:41:21.838Z,14.60
2022-11-26T16:43:49.462Z,22.80
2022-11-26T16:46:23.770Z,13.50
2022-11-26T16:48:51.319Z,19.10
2022-11-26T16:51:19.107Z,16.80
2022-11-26T16:53:46.024Z,14.70
2022-11-26T16:56:24.058Z,16.10
2022-11-26T16:58:51.446Z,15.90
2022-11-26T17:01:18.826Z,13.40
2022-11-26T17:03:45.725Z,15.90
2022-11-26T17:06:23.585Z,14.10
2022-11-26T17:08:51.100Z,18.70
2022-11-26T17:11:18.142Z,15.40
2022-11-26T17:13:45.461Z,15.90
2022-11-26T17:16:17.124Z,16.40
2022-11-26T17:18:44.268Z,22.20
2022-11-26T17:21:11.374Z,19.30
2022-11-26T17:23:38.309Z,18.70
2022-11-26T17:26:20.224Z,15.50
2022-11-26T17:28:48.419Z,13.60
2022-11-26T17:31:15.667Z,15.70
2022-11-26T17:33:42.820Z,16.30
2022-11-26T17:36:20.723Z,14.50
2022-11-26T17:38:48.620Z,17.60
2022-11-26T17:41:15.870Z,15.30
2022-11-26T17:43:42.894Z,19.80
2022-11-26T17:46:18.829Z,16.70
2022-11-26T17:48:48.137Z,15.00
2022-11-26T17:51:15.220Z,14.40
2022-11-26T17:53:42.912Z,17.90
2022-11-26T17:56:22.658Z,14.90
2022-11-26T17:58:50.381Z,15.30
2022-11-26T18:01:17.637Z,16.90
2022-11-26T18:03:45.183Z,17.80
2022-11-26T18:06:31.563Z,21.90
2022-11-26T18:08:58.233Z,15.20
2022-11-26T18:11:53.446Z,17.10
2022-11-26T18:14:20.832Z,22.60
2022-11-26T18:16:48.547Z,19.70
2022-11-26T18:19:17.948Z,14.50
2022-11-26T18:21:45.256Z,17.30
2022-11-26T18:24:13.328Z,15.90
2022-11-26T18:26:40.378Z,13.90
2022-11-26T18:29:07.623Z,17.20
2022-11-26T18:31:39.349Z,16.50
2022-11-26T18:34:07.311Z,20.10
2022-11-26T18:36:34.169Z,19.10
2022-11-26T18:39:03.551Z,17.00
2022-11-26T18:41:30.358Z,18.20
2022-11-26T18:43:57.150Z,19.50
2022-11-26T18:46:24.051Z,15.50
2022-11-26T18:48:51.033Z,18.30
2022-11-26T18:51:18.298Z,17.10
2022-11-26T18:53:45.003Z,20.60
2022-11-26T18:56:15.698Z,18.00
2022-11-26T18:58:43.324Z,18.60
2022-11-26T19:01:20.030Z,17.80
2022-11-26T19:03:46.780Z,15.30
2022-11-26T19:06:18.213Z,16.40
2022-11-26T19:11:18.177Z,17.00
2022-11-26T19:13:45.263Z,20.10
2022-11-26T19:16:16.807Z,14.20
2022-11-26T19:18:45.360Z,17.30
2022-11-26T19:21:27.124Z,14.60
2022-11-26T19:23:56.870Z,13.70
2022-11-26T19:26:24.217Z,17.70
2022-11-26T19:28:51.654Z,15.50
2022-11-26T19:31:21.762Z,17.70
2022-11-26T19:33:54.511Z,16.70
2022-11-26T19:36:21.583Z,18.30
2022-11-26T19:38:54.691Z,20.10
2022-11-26T19:41:25.628Z,16.50
2022-11-26T19:46:23.052Z,18.00
2022-11-26T19:48:51.812Z,20.70
2022-11-26T19:51:21.853Z,21.20
2022-11-26T19:53:51.318Z,17.10
2022-11-26T19:56:20.813Z,15.00
2022-11-26T19:58:48.015Z,20.60
2022-11-26T20:01:16.669Z,18.30
2022-11-26T20:03:43.924Z,19.40
2022-11-26T20:06:18.323Z,18.60
2022-11-26T20:08:46.307Z,20.10
2022-11-26T20:11:14.676Z,18.30
2022-11-26T20:13:43.813Z,18.20
2022-11-26T20:16:21.881Z,19.10
2022-11-26T20:18:49.064Z,18.80
2022-11-26T20:21:20.413Z,16.50
2022-11-26T20:26:24.819Z,16.20
2022-11-26T20:28:52.711Z,19.00
2022-11-26T20:31:23.610Z,14.50
2022-11-26T20:33:52.288Z,17.90
2022-11-26T20:36:20.285Z,14.80
2022-11-26T20:38:52.291Z,15.70
2022-11-26T20:41:19.137Z,18.60
2022-11-26T20:43:45.879Z,18.10
2022-11-26T20:46:14.236Z,19.60
2022-11-26T20:48:43.241Z,16.00
2022-11-26T20:51:17.127Z,16.00
2022-11-26T20:53:49.378Z,19.00
2022-11-26T20:56:19.279Z,24.10
2022-11-26T20:58:46.369Z,16.50
2022-11-26T21:01:16.943Z,20.20
2022-11-26T21:03:44.802Z,22.90
2022-11-26T21:06:13.393Z,20.70
2022-11-26T21:08:41.619Z,20.40
2022-11-26T21:11:09.419Z,19.20
2022-11-26T21:13:37.917Z,22.60
2022-11-26T21:16:07.418Z,21.20
2022-11-26T21:18:34.111Z,19.00
2022-11-26T21:21:11.954Z,19.90
2022-11-26T21:23:40.350Z,19.30
2022-11-26T21:26:10.541Z,18.00
2022-11-26T21:28:37.841Z,18.50
2022-11-26T21:31:14.186Z,16.80
2022-11-26T21:33:41.066Z,18.90
2022-11-26T21:36:10.548Z,15.10
2022-11-26T21:38:37.869Z,16.80
2022-11-26T21:41:06.237Z,14.50
2022-11-26T21:43:32.973Z,15.40
2022-11-26T21:46:04.462Z,14.50
2022-11-26T21:48:31.558Z,13.30
2022-11-26T21:50:58.604Z,18.50
2022-11-26T21:53:25.332Z,17.10
2022-11-26T21:55:52.446Z,17.30
2022-11-26T21:58:19.139Z,15.10
2022-11-26T22:00:45.827Z,15.40
2022-11-26T22:03:12.518Z,13.70
2022-11-26T22:05:41.034Z,11.40
2022-11-26T22:08:07.764Z,14.70
2022-11-26T22:10:36.159Z,15.40
2022-11-26T22:13:03.406Z,14.70
2022-11-26T22:15:30.033Z,16.10
2022-11-26T22:17:56.870Z,18.50
2022-11-26T22:20:23.494Z,18.50
2022-11-26T22:22:50.139Z,18.60
2022-11-26T22:25:16.877Z,18.10
2022-11-26T22:27:43.595Z,20.60
2022-11-26T22:30:10.897Z,19.70
2022-11-26T22:32:37.575Z,21.00
2022-11-26T22:35:04.762Z,20.50
2022-11-26T22:37:31.394Z,17.70
2022-11-26T22:39:58.081Z,16.10
2022-11-26T22:42:24.751Z,13.90
2022-11-26T22:44:51.375Z,13.80
2022-11-26T22:47:17.982Z,15.30
2022-11-26T22:49:44.642Z,13.80
2022-11-26T22:52:11.271Z,11.50
2022-11-26T22:54:37.896Z,17.30
2022-11-26T22:57:04.496Z,13.00
2022-11-26T22:59:31.274Z,16.00
2022-11-26T23:01:57.951Z,13.30
2022-11-26T23:04:24.579Z,13.10
2022-11-26T23:06:51.198Z,12.70
2022-11-26T23:09:18.855Z,14.30
2022-11-26T23:11:45.556Z,14.50
2022-11-26T23:14:12.375Z,11.10
2022-11-26T23:16:41.759Z,12.10
2022-11-26T23:19:08.651Z,17.50
2022-11-26T23:21:39.674Z,15.30
2022-11-26T23:24:07.189Z,18.60
2022-11-26T23:26:36.082Z,12.60
2022-11-26T23:29:04.755Z,12.50
2022-11-26T23:31:37.653Z,15.20
2022-11-26T23:34:15.236Z,12.60
2022-11-26T23:36:42.162Z,12.10
2022-11-26T23:39:11.886Z,18.90
2022-11-26T23:41:38.599Z,18.30
2022-11-26T23:44:05.328Z,15.30
2022-11-26T23:46:34.661Z,14.10
2022-11-26T23:49:02.225Z,14.30
2022-11-26T23:51:31.906Z,11.40
2022-11-26T23:53:58.768Z,17.50
2022-11-26T23:56:30.233Z,11.70
